Terminal Aerodrome Forecast
Issued by NWS

Home | Current Version | Previous Version | Text Only | Print | Product List | Glossary On
Versions: 1 2 3 4 5 6 7 8 9 10 11 12 13 14 15 16 17 18 19 20 21 22 23 24 25 26 27 28 29 30
000
FTUS41 KCTP 171003 AAA
TAFJST
TAF AMD
KJST 171003Z 1710/1806 15008KT P6SM BKN200
     FM171500 15011G19KT P6SM FEW035 BKN200
     FM172230 15008KT P6SM SKC=

USA.gov is the U.S. government's official web portal to all federal, state and local government web resources and services.